sensor_id;sensor_type;location;lat;lon;timestamp;temperature;humidity
71367;DHT22;60030;52.274;8.040;2022-10-16T00:01:08;14.40;99.90
71367;DHT22;60030;52.274;8.040;2022-10-16T00:03:36;14.40;99.90
71367;DHT22;60030;52.274;8.040;2022-10-16T00:06:04;14.40;99.90
71367;DHT22;60030;52.274;8.040;2022-10-16T00:08:33;14.40;99.90
71367;DHT22;60030;52.274;8.040;2022-10-16T00:11:03;14.40;99.90
71367;DHT22;60030;52.274;8.040;2022-10-16T00:13:30;14.40;99.90
71367;DHT22;60030;52.274;8.040;2022-10-16T00:15:59;14.40;99.90
71367;DHT22;60030;52.274;8.040;2022-10-16T00:18:27;14.40;99.90
71367;DHT22;60030;52.274;8.040;2022-10-16T00:20:54;14.40;99.90
71367;DHT22;60030;52.274;8.040;2022-10-16T00:23:41;14.40;99.90
71367;DHT22;60030;52.274;8.040;2022-10-16T00:26:10;14.30;99.90
71367;DHT22;60030;52.274;8.040;2022-10-16T00:28:38;14.40;99.90
71367;DHT22;60030;52.274;8.040;2022-10-16T00:31:07;14.40;99.90
71367;DHT22;60030;52.274;8.040;2022-10-16T00:33:35;14.40;99.90
71367;DHT22;60030;52.274;8.040;2022-10-16T00:36:05;14.40;99.90
71367;DHT22;60030;52.274;8.040;2022-10-16T00:38:33;14.40;99.90
71367;DHT22;60030;52.274;8.040;2022-10-16T00:41:01;14.40;99.90
71367;DHT22;60030;52.274;8.040;2022-10-16T00:43:37;14.30;99.90
71367;DHT22;60030;52.274;8.040;2022-10-16T00:46:11;14.30;99.90
71367;DHT22;60030;52.274;8.040;2022-10-16T00:48:39;14.20;99.90
71367;DHT22;60030;52.274;8.040;2022-10-16T00:51:07;14.30;99.90
71367;DHT22;60030;52.274;8.040;2022-10-16T00:53:35;14.40;99.90
71367;DHT22;60030;52.274;8.040;2022-10-16T00:56:05;14.40;99.90
71367;DHT22;60030;52.274;8.040;2022-10-16T00:58:32;14.40;99.90
71367;DHT22;60030;52.274;8.040;2022-10-16T01:00:59;14.40;99.90
71367;DHT22;60030;52.274;8.040;2022-10-16T01:03:29;14.40;99.90
71367;DHT22;60030;52.274;8.040;2022-10-16T01:06:19;14.30;99.90
71367;DHT22;60030;52.274;8.040;2022-10-16T01:08:58;14.30;99.90
71367;DHT22;60030;52.274;8.040;2022-10-16T01:11:33;14.30;99.90
71367;DHT22;60030;52.274;8.040;2022-10-16T01:14:08;14.30;99.90
71367;DHT22;60030;52.274;8.040;2022-10-16T01:16:43;14.30;99.90
71367;DHT22;60030;52.274;8.040;2022-10-16T01:19:15;14.30;99.90
71367;DHT22;60030;52.274;8.040;2022-10-16T01:21:45;14.30;99.90
71367;DHT22;60030;52.274;8.040;2022-10-16T01:24:19;14.30;99.90
71367;DHT22;60030;52.274;8.040;2022-10-16T01:27:09;14.30;99.90
71367;DHT22;60030;52.274;8.040;2022-10-16T01:29:41;14.30;99.90
71367;DHT22;60030;52.274;8.040;2022-10-16T01:32:16;14.20;99.90
71367;DHT22;60030;52.274;8.040;2022-10-16T01:34:49;14.30;99.90
71367;DHT22;60030;52.274;8.040;2022-10-16T01:37:25;14.30;99.90
71367;DHT22;60030;52.274;8.040;2022-10-16T01:39:55;14.20;99.90
71367;DHT22;60030;52.274;8.040;2022-10-16T01:42:30;14.30;99.90
71367;DHT22;60030;52.274;8.040;2022-10-16T01:44:59;14.20;99.90
71367;DHT22;60030;52.274;8.040;2022-10-16T01:47:30;14.20;99.90
71367;DHT22;60030;52.274;8.040;2022-10-16T01:49:59;14.20;99.90
71367;DHT22;60030;52.274;8.040;2022-10-16T01:52:29;14.20;99.90
71367;DHT22;60030;52.274;8.040;2022-10-16T01:54:57;14.20;99.90
71367;DHT22;60030;52.274;8.040;2022-10-16T01:57:28;14.10;99.90
71367;DHT22;60030;52.274;8.040;2022-10-16T01:59:58;14.10;99.90
71367;DHT22;60030;52.274;8.040;2022-10-16T02:02:39;14.00;99.90
71367;DHT22;60030;52.274;8.040;2022-10-16T02:05:14;14.10;99.90
71367;DHT22;60030;52.274;8.040;2022-10-16T02:07:42;14.10;99.90
71367;DHT22;60030;52.274;8.040;2022-10-16T02:10:10;14.10;99.90
71367;DHT22;60030;52.274;8.040;2022-10-16T02:12:43;14.10;99.90
71367;DHT22;60030;52.274;8.040;2022-10-16T02:15:11;14.10;99.90
71367;DHT22;60030;52.274;8.040;2022-10-16T02:17:38;14.10;99.90
71367;DHT22;60030;52.274;8.040;2022-10-16T02:20:05;14.10;99.90
71367;DHT22;60030;52.274;8.040;2022-10-16T02:22:36;14.10;99.90
71367;DHT22;60030;52.274;8.040;2022-10-16T02:25:07;14.10;99.90
71367;DHT22;60030;52.274;8.040;2022-10-16T02:27:40;14.10;99.90
71367;DHT22;60030;52.274;8.040;2022-10-16T02:30:13;14.10;99.90
71367;DHT22;60030;52.274;8.040;2022-10-16T02:32:42;14.10;99.90
71367;DHT22;60030;52.274;8.040;2022-10-16T02:35:11;14.00;99.90
71367;DHT22;60030;52.274;8.040;2022-10-16T02:37:40;14.10;99.90
71367;DHT22;60030;52.274;8.040;2022-10-16T02:40:09;14.00;99.90
71367;DHT22;60030;52.274;8.040;2022-10-16T02:42:39;14.00;99.90
71367;DHT22;60030;52.274;8.040;2022-10-16T02:45:09;14.00;99.90
71367;DHT22;60030;52.274;8.040;2022-10-16T02:47:36;14.00;99.90
71367;DHT22;60030;52.274;8.040;2022-10-16T02:50:04;14.00;99.90
71367;DHT22;60030;52.274;8.040;2022-10-16T02:52:31;14.00;99.90
71367;DHT22;60030;52.274;8.040;2022-10-16T02:54:58;14.00;99.90
71367;DHT22;60030;52.274;8.040;2022-10-16T02:57:25;13.90;99.90
71367;DHT22;60030;52.274;8.040;2022-10-16T02:59:54;14.00;99.90
71367;DHT22;60030;52.274;8.040;2022-10-16T03:02:21;14.00;99.90
71367;DHT22;60030;52.274;8.040;2022-10-16T03:04:48;14.10;99.90
71367;DHT22;60030;52.274;8.040;2022-10-16T03:07:15;14.00;99.90
71367;DHT22;60030;52.274;8.040;2022-10-16T03:09:42;14.00;99.90
71367;DHT22;60030;52.274;8.040;2022-10-16T03:12:10;14.00;99.90
71367;DHT22;60030;52.274;8.040;2022-10-16T03:14:37;14.10;99.90
71367;DHT22;60030;52.274;8.040;2022-10-16T03:17:07;14.10;99.90
71367;DHT22;60030;52.274;8.040;2022-10-16T03:19:34;14.10;99.90
71367;DHT22;60030;52.274;8.040;2022-10-16T03:22:01;14.00;99.90
71367;DHT22;60030;52.274;8.040;2022-10-16T03:24:28;14.00;99.90
71367;DHT22;60030;52.274;8.040;2022-10-16T03:26:55;14.00;99.90
71367;DHT22;60030;52.274;8.040;2022-10-16T03:29:23;14.00;99.90
71367;DHT22;60030;52.274;8.040;2022-10-16T03:31:51;14.00;99.90
71367;DHT22;60030;52.274;8.040;2022-10-16T03:34:20;14.00;99.90
71367;DHT22;60030;52.274;8.040;2022-10-16T03:36:47;13.90;99.90
71367;DHT22;60030;52.274;8.040;2022-10-16T03:39:14;14.00;99.90
71367;DHT22;60030;52.274;8.040;2022-10-16T03:41:41;14.00;99.90
71367;DHT22;60030;52.274;8.040;2022-10-16T03:44:08;14.00;99.90
71367;DHT22;60030;52.274;8.040;2022-10-16T03:46:35;14.00;99.90
71367;DHT22;60030;52.274;8.040;2022-10-16T03:49:02;14.00;99.90
71367;DHT22;60030;52.274;8.040;2022-10-16T03:51:31;14.00;99.90
71367;DHT22;60030;52.274;8.040;2022-10-16T03:53:58;14.10;99.90
71367;DHT22;60030;52.274;8.040;2022-10-16T03:56:25;14.00;99.90
71367;DHT22;60030;52.274;8.040;2022-10-16T03:58:52;14.00;99.90
71367;DHT22;60030;52.274;8.040;2022-10-16T04:01:20;14.00;99.90
71367;DHT22;60030;52.274;8.040;2022-10-16T04:03:47;14.00;99.90
71367;DHT22;60030;52.274;8.040;2022-10-16T04:06:14;14.00;99.90
71367;DHT22;60030;52.274;8.040;2022-10-16T04:08:43;14.00;99.90
71367;DHT22;60030;52.274;8.040;2022-10-16T04:11:11;13.90;99.90
71367;DHT22;60030;52.274;8.040;2022-10-16T04:13:38;13.90;99.90
71367;DHT22;60030;52.274;8.040;2022-10-16T04:16:06;14.00;99.90
71367;DHT22;60030;52.274;8.040;2022-10-16T04:18:33;14.00;99.90
71367;DHT22;60030;52.274;8.040;2022-10-16T04:21:03;13.90;99.90
71367;DHT22;60030;52.274;8.040;2022-10-16T04:23:30;13.90;99.90
71367;DHT22;60030;52.274;8.040;2022-10-16T04:25:58;14.00;99.90
71367;DHT22;60030;52.274;8.040;2022-10-16T04:28:26;14.00;99.90
71367;DHT22;60030;52.274;8.040;2022-10-16T04:30:53;14.00;99.90
71367;DHT22;60030;52.274;8.040;2022-10-16T04:33:21;13.90;99.90
71367;DHT22;60030;52.274;8.040;2022-10-16T04:35:48;13.90;99.90
71367;DHT22;60030;52.274;8.040;2022-10-16T04:38:15;13.90;99.90
71367;DHT22;60030;52.274;8.040;2022-10-16T04:40:42;13.90;99.90
71367;DHT22;60030;52.274;8.040;2022-10-16T04:43:11;13.90;99.90
71367;DHT22;60030;52.274;8.040;2022-10-16T04:45:38;13.90;99.90
71367;DHT22;60030;52.274;8.040;2022-10-16T04:48:05;13.90;99.90
71367;DHT22;60030;52.274;8.040;2022-10-16T04:50:32;13.90;99.90
71367;DHT22;60030;52.274;8.040;2022-10-16T04:53:05;13.90;99.90
71367;DHT22;60030;52.274;8.040;2022-10-16T04:55:32;13.90;99.90
71367;DHT22;60030;52.274;8.040;2022-10-16T04:57:59;13.80;99.90
71367;DHT22;60030;52.274;8.040;2022-10-16T05:00:28;13.90;99.90
71367;DHT22;60030;52.274;8.040;2022-10-16T05:02:55;13.90;99.90
71367;DHT22;60030;52.274;8.040;2022-10-16T05:05:22;13.90;99.90
71367;DHT22;60030;52.274;8.040;2022-10-16T05:07:49;13.90;99.90
71367;DHT22;60030;52.274;8.040;2022-10-16T05:10:17;13.90;99.90
71367;DHT22;60030;52.274;8.040;2022-10-16T05:12:44;13.90;99.90
71367;DHT22;60030;52.274;8.040;2022-10-16T05:15:11;13.90;99.90
71367;DHT22;60030;52.274;8.040;2022-10-16T05:17:40;13.90;99.90
71367;DHT22;60030;52.274;8.040;2022-10-16T05:20:07;13.80;99.90
71367;DHT22;60030;52.274;8.040;2022-10-16T05:22:34;13.80;99.90
71367;DHT22;60030;52.274;8.040;2022-10-16T05:25:01;13.80;99.90
71367;DHT22;60030;52.274;8.040;2022-10-16T05:27:28;13.80;99.90
71367;DHT22;60030;52.274;8.040;2022-10-16T05:29:55;13.80;99.90
71367;DHT22;60030;52.274;8.040;2022-10-16T05:32:22;13.80;99.90
71367;DHT22;60030;52.274;8.040;2022-10-16T05:34:51;13.70;99.90
71367;DHT22;60030;52.274;8.040;2022-10-16T05:37:18;13.80;99.90
71367;DHT22;60030;52.274;8.040;2022-10-16T05:39:45;13.90;99.90
71367;DHT22;60030;52.274;8.040;2022-10-16T05:42:12;13.90;99.90
71367;DHT22;60030;52.274;8.040;2022-10-16T05:44:40;13.90;99.90
71367;DHT22;60030;52.274;8.040;2022-10-16T05:47:07;13.90;99.90
71367;DHT22;60030;52.274;8.040;2022-10-16T05:49:34;13.90;99.90
71367;DHT22;60030;52.274;8.040;2022-10-16T05:52:03;13.90;99.90
71367;DHT22;60030;52.274;8.040;2022-10-16T05:54:30;13.90;99.90
71367;DHT22;60030;52.274;8.040;2022-10-16T05:56:57;13.90;99.90
71367;DHT22;60030;52.274;8.040;2022-10-16T05:59:24;13.80;99.90
71367;DHT22;60030;52.274;8.040;2022-10-16T06:01:51;13.80;99.90
71367;DHT22;60030;52.274;8.040;2022-10-16T06:04:19;13.80;99.90
71367;DHT22;60030;52.274;8.040;2022-10-16T06:06:46;13.80;99.90
71367;DHT22;60030;52.274;8.040;2022-10-16T06:09:14;13.80;99.90
71367;DHT22;60030;52.274;8.040;2022-10-16T06:11:41;13.80;99.90
71367;DHT22;60030;52.274;8.040;2022-10-16T06:14:09;13.90;99.90
71367;DHT22;60030;52.274;8.040;2022-10-16T06:16:37;13.80;99.90
71367;DHT22;60030;52.274;8.040;2022-10-16T06:19:04;13.80;99.90
71367;DHT22;60030;52.274;8.040;2022-10-16T06:21:34;13.90;99.90
71367;DHT22;60030;52.274;8.040;2022-10-16T06:24:01;13.80;99.90
71367;DHT22;60030;52.274;8.040;2022-10-16T06:26:30;13.90;99.90
71367;DHT22;60030;52.274;8.040;2022-10-16T06:28:59;13.90;99.90
71367;DHT22;60030;52.274;8.040;2022-10-16T06:31:26;14.00;99.90
71367;DHT22;60030;52.274;8.040;2022-10-16T06:33:57;13.90;99.90
71367;DHT22;60030;52.274;8.040;2022-10-16T06:36:25;14.00;99.90
71367;DHT22;60030;52.274;8.040;2022-10-16T06:38:52;14.00;99.90
71367;DHT22;60030;52.274;8.040;2022-10-16T06:41:21;14.00;99.90
71367;DHT22;60030;52.274;8.040;2022-10-16T06:43:50;14.00;99.90
71367;DHT22;60030;52.274;8.040;2022-10-16T06:46:20;14.00;99.90
71367;DHT22;60030;52.274;8.040;2022-10-16T06:48:48;14.00;99.90
71367;DHT22;60030;52.274;8.040;2022-10-16T06:51:17;14.00;99.90
71367;DHT22;60030;52.274;8.040;2022-10-16T06:53:45;14.10;99.90
71367;DHT22;60030;52.274;8.040;2022-10-16T06:56:14;14.10;99.90
71367;DHT22;60030;52.274;8.040;2022-10-16T06:58:42;14.00;99.90
71367;DHT22;60030;52.274;8.040;2022-10-16T07:01:11;14.00;99.90
71367;DHT22;60030;52.274;8.040;2022-10-16T07:03:40;14.00;99.90
71367;DHT22;60030;52.274;8.040;2022-10-16T07:06:09;14.00;99.90
71367;DHT22;60030;52.274;8.040;2022-10-16T07:08:37;14.00;99.90
71367;DHT22;60030;52.274;8.040;2022-10-16T07:11:07;14.00;99.90
71367;DHT22;60030;52.274;8.040;2022-10-16T07:13:34;14.00;99.90
71367;DHT22;60030;52.274;8.040;2022-10-16T07:16:04;14.10;99.90
71367;DHT22;60030;52.274;8.040;2022-10-16T07:18:33;14.10;99.90
71367;DHT22;60030;52.274;8.040;2022-10-16T07:21:04;14.00;99.90
71367;DHT22;60030;52.274;8.040;2022-10-16T07:23:31;14.00;99.90
71367;DHT22;60030;52.274;8.040;2022-10-16T07:25:59;14.00;99.90
71367;DHT22;60030;52.274;8.040;2022-10-16T07:28:26;14.00;99.90
71367;DHT22;60030;52.274;8.040;2022-10-16T07:30:53;14.00;99.90
71367;DHT22;60030;52.274;8.040;2022-10-16T07:33:21;14.00;99.90
71367;DHT22;60030;52.274;8.040;2022-10-16T07:35:50;14.10;99.90
71367;DHT22;60030;52.274;8.040;2022-10-16T07:38:18;14.10;99.90
71367;DHT22;60030;52.274;8.040;2022-10-16T07:40:46;14.20;99.90
71367;DHT22;60030;52.274;8.040;2022-10-16T07:43:13;14.30;99.90
71367;DHT22;60030;52.274;8.040;2022-10-16T07:45:47;14.40;99.90
71367;DHT22;60030;52.274;8.040;2022-10-16T07:48:15;14.40;99.90
71367;DHT22;60030;52.274;8.040;2022-10-16T07:50:42;14.40;99.90
71367;DHT22;60030;52.274;8.040;2022-10-16T07:53:11;14.40;99.90
71367;DHT22;60030;52.274;8.040;2022-10-16T07:55:38;14.40;99.90
71367;DHT22;60030;52.274;8.040;2022-10-16T07:58:06;14.50;99.90
71367;DHT22;60030;52.274;8.040;2022-10-16T08:00:34;14.50;99.90
71367;DHT22;60030;52.274;8.040;2022-10-16T08:03:02;14.50;99.90
71367;DHT22;60030;52.274;8.040;2022-10-16T08:05:31;14.50;99.90
71367;DHT22;60030;52.274;8.040;2022-10-16T08:07:59;14.60;99.90
71367;DHT22;60030;52.274;8.040;2022-10-16T08:10:29;14.60;99.90
71367;DHT22;60030;52.274;8.040;2022-10-16T08:12:57;14.70;99.90
71367;DHT22;60030;52.274;8.040;2022-10-16T08:15:24;14.70;99.90
71367;DHT22;60030;52.274;8.040;2022-10-16T08:17:56;14.70;99.90
71367;DHT22;60030;52.274;8.040;2022-10-16T08:20:23;14.70;99.90
71367;DHT22;60030;52.274;8.040;2022-10-16T08:22:50;14.80;99.90
71367;DHT22;60030;52.274;8.040;2022-10-16T08:25:17;14.80;99.90
71367;DHT22;60030;52.274;8.040;2022-10-16T08:27:46;14.80;99.90
71367;DHT22;60030;52.274;8.040;2022-10-16T08:30:14;14.90;99.90
71367;DHT22;60030;52.274;8.040;2022-10-16T08:32:41;14.90;99.90
71367;DHT22;60030;52.274;8.040;2022-10-16T08:35:08;15.00;99.90
71367;DHT22;60030;52.274;8.040;2022-10-16T08:37:36;15.00;99.90
71367;DHT22;60030;52.274;8.040;2022-10-16T08:40:06;15.10;99.90
71367;DHT22;60030;52.274;8.040;2022-10-16T08:42:44;15.20;99.90
71367;DHT22;60030;52.274;8.040;2022-10-16T08:45:33;15.30;99.90
71367;DHT22;60030;52.274;8.040;2022-10-16T08:48:14;15.30;99.90
71367;DHT22;60030;52.274;8.040;2022-10-16T08:50:44;15.30;99.90
71367;DHT22;60030;52.274;8.040;2022-10-16T08:53:22;15.30;99.90
71367;DHT22;60030;52.274;8.040;2022-10-16T08:55:52;15.30;99.90
71367;DHT22;60030;52.274;8.040;2022-10-16T08:58:20;15.30;99.90
71367;DHT22;60030;52.274;8.040;2022-10-16T09:00:53;15.40;99.90
71367;DHT22;60030;52.274;8.040;2022-10-16T09:06:21;15.50;99.90
71367;DHT22;60030;52.274;8.040;2022-10-16T09:09:05;15.50;99.90
71367;DHT22;60030;52.274;8.040;2022-10-16T09:11:43;15.60;99.90
71367;DHT22;60030;52.274;8.040;2022-10-16T09:14:26;15.60;99.90
71367;DHT22;60030;52.274;8.040;2022-10-16T09:17:17;15.60;99.90
71367;DHT22;60030;52.274;8.040;2022-10-16T09:19:51;15.70;99.90
71367;DHT22;60030;52.274;8.040;2022-10-16T09:22:22;15.70;99.90
71367;DHT22;60030;52.274;8.040;2022-10-16T09:24:51;15.80;99.90
71367;DHT22;60030;52.274;8.040;2022-10-16T09:27:18;15.80;99.90
71367;DHT22;60030;52.274;8.040;2022-10-16T09:29:46;15.80;99.90
71367;DHT22;60030;52.274;8.040;2022-10-16T09:32:15;15.80;99.90
71367;DHT22;60030;52.274;8.040;2022-10-16T09:34:47;15.90;99.90
71367;DHT22;60030;52.274;8.040;2022-10-16T09:37:17;16.10;99.90
71367;DHT22;60030;52.274;8.040;2022-10-16T09:39:45;16.10;99.90
71367;DHT22;60030;52.274;8.040;2022-10-16T09:42:15;16.20;99.90
71367;DHT22;60030;52.274;8.040;2022-10-16T09:44:47;16.30;99.90
71367;DHT22;60030;52.274;8.040;2022-10-16T09:47:19;16.40;99.90
71367;DHT22;60030;52.274;8.040;2022-10-16T09:49:51;16.40;99.90
71367;DHT22;60030;52.274;8.040;2022-10-16T09:52:19;16.50;99.90
71367;DHT22;60030;52.274;8.040;2022-10-16T09:54:50;16.70;99.90
71367;DHT22;60030;52.274;8.040;2022-10-16T09:57:18;17.00;99.90
71367;DHT22;60030;52.274;8.040;2022-10-16T09:59:47;17.10;99.90
71367;DHT22;60030;52.274;8.040;2022-10-16T10:02:17;17.00;99.90
71367;DHT22;60030;52.274;8.040;2022-10-16T10:04:49;16.90;99.90
71367;DHT22;60030;52.274;8.040;2022-10-16T10:07:24;16.80;99.90
71367;DHT22;60030;52.274;8.040;2022-10-16T10:09:53;16.80;99.90
71367;DHT22;60030;52.274;8.040;2022-10-16T10:12:21;16.90;99.90
71367;DHT22;60030;52.274;8.040;2022-10-16T10:14:50;16.90;99.90
71367;DHT22;60030;52.274;8.040;2022-10-16T10:17:21;16.80;99.90
71367;DHT22;60030;52.274;8.040;2022-10-16T10:19:50;16.60;99.90
71367;DHT22;60030;52.274;8.040;2022-10-16T10:22:31;16.60;99.90
71367;DHT22;60030;52.274;8.040;2022-10-16T10:25:15;16.90;99.90
71367;DHT22;60030;52.274;8.040;2022-10-16T10:28:05;17.20;99.90
71367;DHT22;60030;52.274;8.040;2022-10-16T10:30:39;17.70;99.90
71367;DHT22;60030;52.274;8.040;2022-10-16T10:33:16;17.80;99.90
71367;DHT22;60030;52.274;8.040;2022-10-16T10:35:48;17.80;99.90
71367;DHT22;60030;52.274;8.040;2022-10-16T10:38:27;18.10;99.90
71367;DHT22;60030;52.274;8.040;2022-10-16T10:41:12;18.40;99.90
71367;DHT22;60030;52.274;8.040;2022-10-16T10:43:52;18.80;99.90
71367;DHT22;60030;52.274;8.040;2022-10-16T10:46:28;19.00;99.90
71367;DHT22;60030;52.274;8.040;2022-10-16T10:49:13;18.90;99.90
71367;DHT22;60030;52.274;8.040;2022-10-16T10:51:47;18.60;99.90
71367;DHT22;60030;52.274;8.040;2022-10-16T10:54:25;18.70;99.90
71367;DHT22;60030;52.274;8.040;2022-10-16T10:56:58;19.20;99.90
71367;DHT22;60030;52.274;8.040;2022-10-16T10:59:52;19.40;99.90
71367;DHT22;60030;52.274;8.040;2022-10-16T11:02:26;19.10;99.90
71367;DHT22;60030;52.274;8.040;2022-10-16T11:05:24;19.40;99.90
71367;DHT22;60030;52.274;8.040;2022-10-16T11:07:59;19.30;99.90
71367;DHT22;60030;52.274;8.040;2022-10-16T11:10:28;19.20;99.90
71367;DHT22;60030;52.274;8.040;2022-10-16T11:13:10;19.20;99.90
71367;DHT22;60030;52.274;8.040;2022-10-16T11:15:43;19.00;99.90
71367;DHT22;60030;52.274;8.040;2022-10-16T11:18:16;18.80;99.90
71367;DHT22;60030;52.274;8.040;2022-10-16T11:20:50;18.60;99.90
71367;DHT22;60030;52.274;8.040;2022-10-16T11:23:24;18.30;99.90
71367;DHT22;60030;52.274;8.040;2022-10-16T11:25:55;18.20;99.90
71367;DHT22;60030;52.274;8.040;2022-10-16T11:28:27;18.20;99.90
71367;DHT22;60030;52.274;8.040;2022-10-16T11:31:00;18.30;99.90
71367;DHT22;60030;52.274;8.040;2022-10-16T11:33:32;18.70;99.90
71367;DHT22;60030;52.274;8.040;2022-10-16T11:36:11;19.40;99.90
71367;DHT22;60030;52.274;8.040;2022-10-16T11:38:43;19.70;99.90
71367;DHT22;60030;52.274;8.040;2022-10-16T11:41:18;19.90;99.90
71367;DHT22;60030;52.274;8.040;2022-10-16T11:43:52;20.20;99.90
71367;DHT22;60030;52.274;8.040;2022-10-16T11:46:24;20.30;99.90
71367;DHT22;60030;52.274;8.040;2022-10-16T11:48:55;20.50;99.90
71367;DHT22;60030;52.274;8.040;2022-10-16T11:51:32;20.60;99.90
71367;DHT22;60030;52.274;8.040;2022-10-16T11:54:07;20.70;99.90
71367;DHT22;60030;52.274;8.040;2022-10-16T11:56:38;20.80;99.90
71367;DHT22;60030;52.274;8.040;2022-10-16T11:59:13;20.60;99.90
71367;DHT22;60030;52.274;8.040;2022-10-16T12:01:46;20.80;99.90
71367;DHT22;60030;52.274;8.040;2022-10-16T12:04:21;20.90;99.90
71367;DHT22;60030;52.274;8.040;2022-10-16T12:06:54;21.20;99.90
71367;DHT22;60030;52.274;8.040;2022-10-16T12:09:26;21.20;99.90
71367;DHT22;60030;52.274;8.040;2022-10-16T12:11:54;21.40;99.90
71367;DHT22;60030;52.274;8.040;2022-10-16T12:14:36;21.60;99.90
71367;DHT22;60030;52.274;8.040;2022-10-16T12:17:23;21.50;99.90
71367;DHT22;60030;52.274;8.040;2022-10-16T12:19:58;21.40;99.90
71367;DHT22;60030;52.274;8.040;2022-10-16T12:22:29;21.60;99.90
71367;DHT22;60030;52.274;8.040;2022-10-16T12:24:57;21.70;99.90
71367;DHT22;60030;52.274;8.040;2022-10-16T12:27:29;21.00;99.90
71367;DHT22;60030;52.274;8.040;2022-10-16T12:29:58;20.70;99.90
71367;DHT22;60030;52.274;8.040;2022-10-16T12:32:30;20.70;99.90
71367;DHT22;60030;52.274;8.040;2022-10-16T12:34:59;21.10;99.90
71367;DHT22;60030;52.274;8.040;2022-10-16T12:37:32;20.70;99.90
71367;DHT22;60030;52.274;8.040;2022-10-16T12:40:10;20.50;99.90
71367;DHT22;60030;52.274;8.040;2022-10-16T12:42:38;20.70;99.90
71367;DHT22;60030;52.274;8.040;2022-10-16T12:45:24;20.90;99.90
71367;DHT22;60030;52.274;8.040;2022-10-16T12:47:53;21.00;99.90
71367;DHT22;60030;52.274;8.040;2022-10-16T12:50:27;21.30;99.90
71367;DHT22;60030;52.274;8.040;2022-10-16T12:52:58;21.20;99.90
71367;DHT22;60030;52.274;8.040;2022-10-16T12:55:26;21.00;99.90
71367;DHT22;60030;52.274;8.040;2022-10-16T12:58:18;21.40;99.90
71367;DHT22;60030;52.274;8.040;2022-10-16T13:00:56;21.80;99.90
71367;DHT22;60030;52.274;8.040;2022-10-16T13:03:44;21.80;99.90
71367;DHT22;60030;52.274;8.040;2022-10-16T13:06:20;21.80;99.90
71367;DHT22;60030;52.274;8.040;2022-10-16T13:09:06;22.10;99.90
71367;DHT22;60030;52.274;8.040;2022-10-16T13:11:48;22.20;99.90
71367;DHT22;60030;52.274;8.040;2022-10-16T13:17:16;22.40;99.90
71367;DHT22;60030;52.274;8.040;2022-10-16T13:19:51;22.70;99.90
71367;DHT22;60030;52.274;8.040;2022-10-16T13:22:25;22.80;99.90
71367;DHT22;60030;52.274;8.040;2022-10-16T13:25:06;23.00;99.90
71367;DHT22;60030;52.274;8.040;2022-10-16T13:27:46;23.60;99.90
71367;DHT22;60030;52.274;8.040;2022-10-16T13:30:19;24.60;98.10
71367;DHT22;60030;52.274;8.040;2022-10-16T13:32:49;25.20;96.00
71367;DHT22;60030;52.274;8.040;2022-10-16T13:35:22;25.50;94.20
71367;DHT22;60030;52.274;8.040;2022-10-16T13:37:49;25.50;93.50
71367;DHT22;60030;52.274;8.040;2022-10-16T13:40:22;25.90;92.30
71367;DHT22;60030;52.274;8.040;2022-10-16T13:42:50;26.30;91.00
71367;DHT22;60030;52.274;8.040;2022-10-16T13:45:19;26.50;89.80
71367;DHT22;60030;52.274;8.040;2022-10-16T13:47:46;26.70;88.60
71367;DHT22;60030;52.274;8.040;2022-10-16T13:50:15;26.40;88.10
71367;DHT22;60030;52.274;8.040;2022-10-16T13:52:43;26.60;87.60
71367;DHT22;60030;52.274;8.040;2022-10-16T13:55:11;26.70;86.50
71367;DHT22;60030;52.274;8.040;2022-10-16T13:57:40;26.80;83.80
71367;DHT22;60030;52.274;8.040;2022-10-16T14:00:19;26.80;83.70
71367;DHT22;60030;52.274;8.040;2022-10-16T14:02:51;25.30;87.60
71367;DHT22;60030;52.274;8.040;2022-10-16T14:05:19;24.00;91.40
71367;DHT22;60030;52.274;8.040;2022-10-16T14:07:49;23.10;93.30
71367;DHT22;60030;52.274;8.040;2022-10-16T14:10:23;22.50;94.80
71367;DHT22;60030;52.274;8.040;2022-10-16T14:12:57;22.10;96.10
71367;DHT22;60030;52.274;8.040;2022-10-16T14:15:25;21.90;96.90
71367;DHT22;60030;52.274;8.040;2022-10-16T14:17:53;21.80;97.50
71367;DHT22;60030;52.274;8.040;2022-10-16T14:20:25;21.70;98.10
71367;DHT22;60030;52.274;8.040;2022-10-16T14:23:04;21.70;98.70
71367;DHT22;60030;52.274;8.040;2022-10-16T14:25:32;21.30;99.50
71367;DHT22;60030;52.274;8.040;2022-10-16T14:28:03;21.20;99.90
71367;DHT22;60030;52.274;8.040;2022-10-16T14:30:31;21.20;99.90
71367;DHT22;60030;52.274;8.040;2022-10-16T14:33:00;21.20;99.90
71367;DHT22;60030;52.274;8.040;2022-10-16T14:35:30;21.10;99.90
71367;DHT22;60030;52.274;8.040;2022-10-16T14:37:58;20.90;99.90
71367;DHT22;60030;52.274;8.040;2022-10-16T14:40:28;20.80;99.90
71367;DHT22;60030;52.274;8.040;2022-10-16T14:42:56;20.70;99.90
71367;DHT22;60030;52.274;8.040;2022-10-16T14:45:27;20.50;99.90
71367;DHT22;60030;52.274;8.040;2022-10-16T14:47:57;20.40;99.90
71367;DHT22;60030;52.274;8.040;2022-10-16T14:50:24;20.80;99.90
71367;DHT22;60030;52.274;8.040;2022-10-16T14:52:51;21.10;99.90
71367;DHT22;60030;52.274;8.040;2022-10-16T14:55:19;20.90;99.90
71367;DHT22;60030;52.274;8.040;2022-10-16T14:57:46;20.60;99.90
71367;DHT22;60030;52.274;8.040;2022-10-16T15:00:17;20.70;99.90
71367;DHT22;60030;52.274;8.040;2022-10-16T15:02:47;20.50;99.90
71367;DHT22;60030;52.274;8.040;2022-10-16T15:05:18;20.50;99.90
71367;DHT22;60030;52.274;8.040;2022-10-16T15:07:46;20.50;99.90
71367;DHT22;60030;52.274;8.040;2022-10-16T15:10:13;20.30;99.90
71367;DHT22;60030;52.274;8.040;2022-10-16T15:12:41;20.20;99.90
71367;DHT22;60030;52.274;8.040;2022-10-16T15:15:30;20.00;99.90
71367;DHT22;60030;52.274;8.040;2022-10-16T15:18:00;20.00;99.90
71367;DHT22;60030;52.274;8.040;2022-10-16T15:20:30;20.00;99.90
71367;DHT22;60030;52.274;8.040;2022-10-16T15:22:59;19.90;99.90
71367;DHT22;60030;52.274;8.040;2022-10-16T15:25:34;20.00;99.90
71367;DHT22;60030;52.274;8.040;2022-10-16T15:28:02;20.40;99.90
71367;DHT22;60030;52.274;8.040;2022-10-16T15:30:30;20.50;99.90
71367;DHT22;60030;52.274;8.040;2022-10-16T15:32:57;20.20;99.90
71367;DHT22;60030;52.274;8.040;2022-10-16T15:35:25;20.00;99.90
71367;DHT22;60030;52.274;8.040;2022-10-16T15:37:52;19.80;99.90
71367;DHT22;60030;52.274;8.040;2022-10-16T15:40:20;19.70;99.90
71367;DHT22;60030;52.274;8.040;2022-10-16T15:42:48;19.70;99.90
71367;DHT22;60030;52.274;8.040;2022-10-16T15:45:16;19.60;99.90
71367;DHT22;60030;52.274;8.040;2022-10-16T15:47:44;19.50;99.90
71367;DHT22;60030;52.274;8.040;2022-10-16T15:50:13;19.50;99.90
71367;DHT22;60030;52.274;8.040;2022-10-16T15:52:42;19.40;99.90
71367;DHT22;60030;52.274;8.040;2022-10-16T15:55:11;19.40;99.90
71367;DHT22;60030;52.274;8.040;2022-10-16T15:57:39;19.30;99.90